RJTE(METAR)
02/28 07:00
METAR RJTE 272200Z 05010KT 9999 FEW020 BKN170 04/M02 Q1025 RMK
1CU020 6AC170 A3028=
戻る
トップページへ戻る
IMOC Co,.Ltd.